Aviation Digital Data Service (ADDS)

Output produced by METARs form (0624 UTC 14 December 2017)
found at http://www.aviationweather.gov/adds/metars/
 
Forecast for: ZSPD (SHANGHAI/PUDONG , CN)
Text: TAF ZSPD 140324Z 1406/1506 06006MPS 6000 BKN011 TX10/1406Z TN06/1421Z
Forecast period: 0600 UTC 14 December 2017 to 0600 UTC 15 December 2017
Forecast type: FROM: standard forecast or significant change
Winds: from the ENE (60 degrees) at 14 MPH (12 knots; 6.2 m/s)
Visibility: 4 miles (6 km)
Ceiling: 1100 feet AGL
Clouds: broken clouds at 1100 feet AGL
Weather: no significant weather forecast for this period